createdAt,value
2022-09-12T06:41:00.833Z,0.77
2022-09-12T06:43:30.553Z,0.60
2022-09-12T06:45:59.215Z,0.60
2022-09-12T06:48:30.389Z,0.80
2022-09-12T06:50:59.990Z,0.70
2022-09-12T06:53:30.229Z,0.77
2022-09-12T06:56:02.286Z,0.60
2022-09-12T06:58:31.629Z,0.80
2022-09-12T07:01:03.904Z,0.73
2022-09-12T07:03:33.069Z,0.80
2022-09-12T07:06:05.647Z,0.90
2022-09-12T07:08:34.900Z,0.80
2022-09-12T07:11:12.931Z,0.70
2022-09-12T07:13:42.651Z,0.70
2022-09-12T07:16:15.992Z,0.40
2022-09-12T07:18:51.828Z,0.60
2022-09-12T07:21:20.950Z,0.70
2022-09-12T07:23:49.608Z,0.70
2022-09-12T07:26:19.994Z,0.73
2022-09-12T07:28:53.606Z,0.65
2022-09-12T07:31:23.994Z,0.55
2022-09-12T07:33:54.788Z,0.50
2022-09-12T07:36:25.535Z,0.50
2022-09-12T07:38:59.441Z,0.60
2022-09-12T07:41:31.400Z,0.65
2022-09-12T07:44:01.348Z,0.60
2022-09-12T07:46:31.169Z,0.90
2022-09-12T07:49:01.566Z,0.70
2022-09-12T07:51:31.643Z,0.60
2022-09-12T07:54:00.512Z,0.50
2022-09-12T07:56:33.664Z,0.40
2022-09-12T07:59:04.321Z,0.90
2022-09-12T08:01:33.024Z,0.50
2022-09-12T08:04:02.074Z,0.57
2022-09-12T08:06:32.363Z,0.70
2022-09-12T08:09:02.079Z,0.63
2022-09-12T08:11:32.286Z,0.50
2022-09-12T08:14:03.134Z,0.80
2022-09-12T08:16:32.909Z,0.68
2022-09-12T08:19:02.492Z,0.95
2022-09-12T08:21:32.632Z,0.80
2022-09-12T08:24:03.124Z,0.98
2022-09-12T08:26:34.555Z,0.85
2022-09-12T08:29:04.310Z,1.00
2022-09-12T08:31:36.700Z,0.85
2022-09-12T08:34:06.728Z,0.77
2022-09-12T08:36:35.687Z,0.98
2022-09-12T08:39:06.689Z,1.00
2022-09-12T08:41:40.974Z,1.00
2022-09-12T08:44:26.308Z,0.82
2022-09-12T08:47:11.374Z,1.00
2022-09-12T08:49:46.961Z,0.70
2022-09-12T08:52:20.113Z,0.93
2022-09-12T08:54:50.239Z,0.90
2022-09-12T08:57:20.535Z,0.95
2022-09-12T08:59:49.606Z,0.90
2022-09-12T09:02:39.669Z,1.38
2022-09-12T09:05:18.058Z,1.10
2022-09-12T09:08:11.080Z,1.00
2022-09-12T09:10:52.006Z,1.35
2022-09-12T09:13:55.810Z,0.80
2022-09-12T09:16:28.681Z,0.73
2022-09-12T09:19:00.885Z,1.10
2022-09-12T09:21:34.117Z,1.00
2022-09-12T09:24:06.726Z,1.10
2022-09-12T09:26:44.638Z,1.10
2022-09-12T09:29:18.909Z,1.15
2022-09-12T09:31:50.366Z,1.05
2022-09-12T09:34:22.873Z,1.00
2022-09-12T09:36:54.005Z,1.13
2022-09-12T09:39:36.496Z,0.82
2022-09-12T09:42:23.589Z,1.23
2022-09-12T09:44:55.839Z,1.02
2022-09-12T09:47:24.721Z,1.00
2022-09-12T09:49:53.289Z,0.80
2022-09-12T09:52:27.719Z,1.02
2022-09-12T09:54:59.161Z,1.05
2022-09-12T09:57:42.232Z,1.40
2022-09-12T10:00:32.012Z,1.00
2022-09-12T10:03:31.158Z,0.98
2022-09-12T10:06:02.470Z,1.00
2022-09-12T10:08:32.921Z,1.10
2022-09-12T10:11:04.631Z,0.98
2022-09-12T10:13:38.127Z,1.50
2022-09-12T10:16:20.890Z,1.05
2022-09-12T10:18:51.297Z,1.40
2022-09-12T10:21:36.071Z,1.05
2022-09-12T10:24:15.273Z,1.10
2022-09-12T10:26:46.399Z,1.00
2022-09-12T10:29:18.443Z,1.05
2022-09-12T10:31:52.445Z,1.13
2022-09-12T10:34:38.099Z,1.00
2022-09-12T10:37:25.950Z,0.95
2022-09-12T10:39:57.628Z,1.70
2022-09-12T10:42:48.515Z,1.25
2022-09-12T10:45:22.959Z,1.13
2022-09-12T10:47:54.035Z,1.00
2022-09-12T10:50:26.366Z,1.00
2022-09-12T10:52:55.374Z,0.80
2022-09-12T10:55:32.918Z,1.20
2022-09-12T10:58:25.432Z,0.82
2022-09-12T11:01:00.265Z,1.13
2022-09-12T11:03:51.525Z,0.90
2022-09-12T11:06:27.629Z,1.10
2022-09-12T11:09:04.713Z,1.15
2022-09-12T11:11:47.069Z,1.10
2022-09-12T11:14:28.306Z,0.77
2022-09-12T11:17:04.397Z,1.10
2022-09-12T11:19:55.409Z,0.90
2022-09-12T11:22:35.240Z,0.85
2022-09-12T11:25:25.123Z,0.82
2022-09-12T11:28:06.517Z,1.00
2022-09-12T11:30:44.038Z,0.95
2022-09-12T11:33:31.845Z,0.93
2022-09-12T11:36:06.521Z,0.93
2022-09-12T11:38:57.556Z,0.90
2022-09-12T11:41:31.605Z,0.90
2022-09-12T11:44:06.130Z,1.00
2022-09-12T11:46:38.338Z,1.10
2022-09-12T11:49:15.761Z,0.80
2022-09-12T11:51:51.090Z,0.90
2022-09-12T11:56:57.001Z,1.13
2022-09-12T11:59:41.895Z,0.77
2022-09-12T12:02:16.493Z,1.10
2022-09-12T12:05:00.817Z,0.90
2022-09-12T12:07:37.469Z,1.10
2022-09-12T12:10:06.758Z,1.13
2022-09-12T12:12:36.875Z,0.90
2022-09-12T12:15:06.518Z,0.85
2022-09-12T12:17:35.930Z,1.10
2022-09-12T12:20:08.694Z,0.85
2022-09-12T12:22:56.979Z,1.17
2022-09-12T12:25:53.030Z,0.90
2022-09-12T12:28:57.118Z,0.82
2022-09-12T12:31:25.820Z,1.33
2022-09-12T12:34:20.784Z,0.90
2022-09-12T12:36:50.478Z,1.30
2022-09-12T12:40:06.060Z,0.80
2022-09-12T12:43:22.639Z,1.08
2022-09-12T12:46:14.715Z,0.88
2022-09-12T12:49:10.031Z,0.80
2022-09-12T12:52:02.532Z,0.97
2022-09-12T12:54:50.446Z,1.10
2022-09-12T12:57:36.802Z,0.98
2022-09-12T13:00:09.107Z,1.15
2022-09-12T13:02:43.606Z,2.35
2022-09-12T13:05:21.381Z,0.97
2022-09-12T13:07:57.358Z,1.30
2022-09-12T13:10:29.646Z,0.90
2022-09-12T13:13:03.605Z,0.77
2022-09-12T13:15:53.987Z,0.82
2022-09-12T13:18:30.442Z,1.00
2022-09-12T13:21:11.021Z,0.90
2022-09-12T13:23:40.706Z,0.90
2022-09-12T13:26:14.488Z,0.77
2022-09-12T13:28:43.322Z,1.00
2022-09-12T13:31:19.750Z,1.00
2022-09-12T13:33:52.724Z,0.80
2022-09-12T13:36:56.527Z,0.93
2022-09-12T13:39:29.356Z,0.85
2022-09-12T13:42:39.446Z,0.70
2022-09-12T13:45:14.299Z,0.90
2022-09-12T13:47:45.461Z,0.98
2022-09-12T13:50:20.948Z,1.10
2022-09-12T13:52:54.271Z,0.95
2022-09-12T13:55:47.470Z,0.80
2022-09-12T13:58:21.313Z,1.15
2022-09-12T14:01:02.287Z,0.70
2022-09-12T14:03:50.461Z,1.08
2022-09-12T14:06:20.984Z,1.10
2022-09-12T14:08:49.948Z,1.27
2022-09-12T14:11:26.522Z,1.20
2022-09-12T14:13:56.236Z,1.30
2022-09-12T14:16:28.569Z,1.13
2022-09-12T14:18:57.505Z,0.82
2022-09-12T14:21:35.893Z,0.95
2022-09-12T14:24:08.681Z,0.90
2022-09-12T14:26:40.730Z,0.98
2022-09-12T14:29:12.915Z,0.77
2022-09-12T14:31:41.807Z,1.13
2022-09-12T14:34:16.571Z,0.90
2022-09-12T14:36:50.248Z,0.73
2022-09-12T14:39:25.348Z,0.80
2022-09-12T14:42:03.956Z,1.10
2022-09-12T14:44:34.567Z,0.80
2022-09-12T14:47:14.262Z,1.45
2022-09-12T14:49:43.948Z,1.17
2022-09-12T14:52:28.787Z,0.80
2022-09-12T14:55:00.329Z,0.85
2022-09-12T14:57:40.437Z,0.80
2022-09-12T15:00:27.006Z,0.60
2022-09-12T15:02:56.610Z,0.70
2022-09-12T15:05:28.111Z,1.00
2022-09-12T15:08:19.637Z,0.70
2022-09-12T15:10:48.950Z,0.85
2022-09-12T15:13:22.703Z,0.93
2022-09-12T15:15:54.654Z,1.65
2022-09-12T15:18:24.848Z,0.85
2022-09-12T15:20:56.714Z,0.85
2022-09-12T15:23:34.195Z,0.80
2022-09-12T15:26:03.187Z,0.90
2022-09-12T15:28:33.238Z,0.88
2022-09-12T15:31:07.453Z,0.90
2022-09-12T15:33:36.442Z,0.82
2022-09-12T15:36:11.650Z,0.65
2022-09-12T15:38:41.878Z,1.15
2022-09-12T15:41:14.830Z,0.90
2022-09-12T15:43:43.791Z,0.65
2022-09-12T15:46:13.978Z,0.70
2022-09-12T15:48:42.607Z,0.95
2022-09-12T15:51:15.554Z,1.17
2022-09-12T15:53:46.615Z,0.90
2022-09-12T15:56:16.125Z,0.77
2022-09-12T15:58:57.725Z,0.90
2022-09-12T16:01:27.690Z,0.73
2022-09-12T16:03:56.548Z,1.08
2022-09-12T16:06:25.501Z,1.02
2022-09-12T16:08:55.668Z,0.98
2022-09-12T16:11:26.100Z,0.80
2022-09-12T16:13:56.975Z,0.80
2022-09-12T16:16:25.878Z,0.90
2022-09-12T16:18:54.676Z,0.88
2022-09-12T16:21:23.436Z,1.25
2022-09-12T16:23:52.166Z,0.70
2022-09-12T16:26:22.222Z,0.70
2022-09-12T16:28:56.710Z,0.68
2022-09-12T16:31:26.468Z,0.80
2022-09-12T16:33:55.356Z,1.40
2022-09-12T16:36:24.836Z,0.88
2022-09-12T16:38:55.010Z,0.90
2022-09-12T16:41:26.972Z,1.10
2022-09-12T16:43:56.465Z,0.98
2022-09-12T16:46:28.097Z,0.70
2022-09-12T16:48:58.326Z,0.95
2022-09-12T16:51:28.678Z,0.50
2022-09-12T16:53:57.998Z,0.63
2022-09-12T16:56:28.231Z,0.98
2022-09-12T16:58:57.087Z,0.80
2022-09-12T17:01:27.433Z,0.60
2022-09-12T17:03:57.680Z,0.95
2022-09-12T17:06:27.469Z,0.70
2022-09-12T17:09:00.927Z,0.80
2022-09-12T17:11:33.556Z,0.70
2022-09-12T17:14:05.522Z,0.80
2022-09-12T17:16:35.926Z,0.57
2022-09-12T17:19:05.720Z,0.90
2022-09-12T17:21:35.374Z,1.00
2022-09-12T17:24:04.988Z,0.90
2022-09-12T17:26:35.200Z,0.57
2022-09-12T17:29:04.231Z,0.95
2022-09-12T17:31:33.400Z,0.90
2022-09-12T17:34:03.109Z,0.73
2022-09-12T17:36:32.835Z,0.70
2022-09-12T17:39:03.086Z,0.80
2022-09-12T17:41:33.206Z,0.80
2022-09-12T17:44:04.166Z,0.80
2022-09-12T17:46:35.127Z,1.00
2022-09-12T17:49:07.925Z,0.80
2022-09-12T17:51:37.074Z,0.52
2022-09-12T17:54:08.567Z,1.27
2022-09-12T17:56:38.396Z,1.00
2022-09-12T17:59:09.838Z,1.30
2022-09-12T18:01:56.054Z,1.85
2022-09-12T18:04:25.268Z,2.05
2022-09-12T18:06:54.356Z,1.67
2022-09-12T18:09:25.226Z,2.15
2022-09-12T18:11:54.544Z,2.10
2022-09-12T18:14:25.127Z,2.55
2022-09-12T18:16:54.000Z,1.90
2022-09-12T18:19:23.526Z,2.17
2022-09-12T18:21:52.448Z,2.22
2022-09-12T18:24:21.436Z,2.20
2022-09-12T18:26:50.126Z,2.13
2022-09-12T18:29:20.197Z,2.47
2022-09-12T18:31:50.917Z,2.28
2022-09-12T18:34:19.783Z,2.63
2022-09-12T18:36:50.157Z,2.22
2022-09-12T18:39:20.013Z,2.55
2022-09-12T18:48:20.727Z,2.00
2022-09-12T18:50:49.527Z,2.50
2022-09-12T18:53:18.248Z,2.20
2022-09-12T18:55:47.035Z,2.65
2022-09-12T18:58:15.868Z,2.50
2022-09-12T19:00:48.238Z,2.25
2022-09-12T19:03:18.840Z,4.13
2022-09-12T19:05:47.599Z,2.45
2022-09-12T19:08:16.545Z,2.40
2022-09-12T19:10:45.821Z,2.60
2022-09-12T19:13:14.331Z,2.30
2022-09-12T19:15:43.046Z,2.90
2022-09-12T19:18:11.951Z,2.53
2022-09-12T19:20:42.231Z,2.63
2022-09-12T19:23:11.023Z,2.60
2022-09-12T19:25:39.836Z,2.58
2022-09-12T19:28:09.006Z,2.28
2022-09-12T19:30:40.764Z,2.40
2022-09-12T19:33:13.197Z,2.30
2022-09-12T19:35:43.510Z,2.50
2022-09-12T19:38:12.686Z,2.08
2022-09-12T19:40:41.519Z,2.25
2022-09-12T19:43:11.168Z,2.58
2022-09-12T19:45:47.837Z,2.50
2022-09-12T19:48:16.668Z,2.22
2022-09-12T19:50:46.862Z,2.28
2022-09-12T19:53:15.670Z,2.78
